Terminal Aerodrome Forecast
Issued by NWS

Home | Current Version | Previous Version | Text Only | Print | Product List | Glossary On
Versions: 1 2 3 4 5 6 7 8 9 10 11 12 13 14 15 16 17 18 19 20
000
FTUS44 KTSA 211600 AAA
TAFRVS
TAF AMD
KRVS 211611Z 2116/2212 03010KT P6SM SCT010 BKN050
      TEMPO 2116/2118 6SM -SHRA BKN010
     FM220200 01004KT P6SM SKC=

USA.gov is the U.S. government's official web portal to all federal, state and local government web resources and services.